Time;durP1;ratioP1;P1;durP2;ratioP2;P2;SDS_P1;SDS_P2;PMS_P1;PMS_P2;Temp;Humidity;BMP_temperature;BMP_pressure;BME280_temperature;BME280_humidity;BME280_pressure;Samples;Min_cycle;Max_cycle;Signal;HPM_P1;HPM_P2
2024/02/03 00:00:37;;;;;;;4.18;1.15;;;11.70;99.90;;;;;;6262143;28;20038;-93
2024/02/03 00:03:54;;;;;;;5.65;1.40;;;11.70;99.90;;;;;;6221291;28;20038;-92
2024/02/03 00:06:56;;;;;;;4.90;1.10;;;11.60;99.90;;;;;;6269392;28;20112;-89
2024/02/03 00:10:01;;;;;;;4.65;1.00;;;11.60;99.90;;;;;;6252807;28;20420;-93
2024/02/03 00:13:03;;;;;;;3.08;1.13;;;11.50;99.90;;;;;;6268148;28;20114;-92
2024/02/03 00:16:05;;;;;;;4.95;1.00;;;11.50;99.90;;;;;;6232518;28;20050;-91
2024/02/03 00:19:07;;;;;;;3.08;1.20;;;11.50;99.90;;;;;;6222053;28;20064;-93
2024/02/03 00:22:08;;;;;;;3.78;0.82;;;11.50;99.90;;;;;;6249147;28;20045;-92
2024/02/03 00:25:16;;;;;;;5.22;1.20;;;11.50;99.90;;;;;;6228371;28;20054;-90
2024/02/03 00:28:17;;;;;;;5.95;1.02;;;11.30;99.90;;;;;;6457094;22;20042;-92
2024/02/03 00:31:19;;;;;;;4.65;1.10;;;11.30;99.90;;;;;;6257238;28;20050;-91
2024/02/03 00:34:24;;;;;;;3.30;1.23;;;11.30;99.90;;;;;;6264292;28;20041;-93
2024/02/03 00:37:26;;;;;;;4.30;1.40;;;11.20;99.90;;;;;;6235318;28;20054;-90
2024/02/03 00:40:28;;;;;;;3.28;0.90;;;11.20;99.90;;;;;;6223624;28;20046;-92
2024/02/03 00:43:30;;;;;;;3.92;1.02;;;11.20;99.90;;;;;;6252314;28;20124;-81
2024/02/03 00:46:31;;;;;;;4.57;1.20;;;11.10;99.90;;;;;;6235213;28;20054;-91
2024/02/03 00:49:33;;;;;;;4.32;1.02;;;11.10;99.90;;;;;;6260468;28;20051;-92
2024/02/03 00:52:35;;;;;;;5.30;1.52;;;11.00;99.90;;;;;;6216819;28;20620;-90
2024/02/03 00:55:37;;;;;;;5.50;1.30;;;11.00;99.90;;;;;;6240487;28;20048;-92
2024/02/03 00:58:39;;;;;;;3.95;1.30;;;10.90;99.90;;;;;;6251481;28;20049;-91
2024/02/03 01:01:40;;;;;;;3.58;1.08;;;10.90;99.90;;;;;;6252348;28;20050;-92
2024/02/03 01:04:42;;;;;;;4.97;1.20;;;10.90;99.90;;;;;;6255979;28;20068;-90
2024/02/03 01:07:44;;;;;;;7.40;1.35;;;10.80;99.90;;;;;;6230835;28;20405;-93
2024/02/03 01:10:46;;;;;;;4.97;1.10;;;10.80;99.90;;;;;;6255800;28;20049;-90
2024/02/03 01:13:48;;;;;;;3.85;1.02;;;10.70;99.90;;;;;;6240835;28;20199;-91
2024/02/03 01:16:50;;;;;;;5.18;1.30;;;10.70;99.90;;;;;;6234277;28;20065;-93
2024/02/03 01:19:53;;;;;;;4.93;1.33;;;10.70;99.90;;;;;;6235328;28;20050;-90
2024/02/03 01:22:55;;;;;;;6.68;1.35;;;10.70;99.90;;;;;;6241820;28;20046;-92
2024/02/03 01:25:57;;;;;;;3.03;1.15;;;10.70;99.90;;;;;;6257966;28;20049;-91
2024/02/03 01:28:58;;;;;;;3.63;1.00;;;10.60;99.90;;;;;;6229300;28;20378;-90
2024/02/03 01:32:00;;;;;;;4.18;1.30;;;10.70;99.90;;;;;;6229544;28;20057;-91
2024/02/03 01:35:02;;;;;;;4.13;1.20;;;10.60;99.90;;;;;;6255404;28;20061;-92
2024/02/03 01:38:04;;;;;;;4.68;1.25;;;10.60;99.90;;;;;;6232331;28;20054;-91
2024/02/03 01:41:06;;;;;;;4.45;1.17;;;10.60;99.90;;;;;;6208974;28;20140;-91
2024/02/03 01:44:07;;;;;;;5.15;1.30;;;10.60;99.90;;;;;;6241179;28;20054;-90
2024/02/03 01:47:09;;;;;;;5.82;1.50;;;10.50;99.90;;;;;;6258569;28;20046;-92
2024/02/03 01:50:12;;;;;;;5.18;1.30;;;10.60;99.90;;;;;;6236048;28;20068;-91
2024/02/03 01:53:14;;;;;;;4.78;1.25;;;10.70;99.90;;;;;;6257670;28;20057;-89
2024/02/03 01:56:16;;;;;;;5.03;1.17;;;10.70;99.90;;;;;;6234946;28;20064;-88
2024/02/03 01:59:18;;;;;;;6.03;1.35;;;10.70;99.90;;;;;;6246675;28;20050;-93
2024/02/03 02:02:19;;;;;;;3.58;1.15;;;10.80;99.90;;;;;;6238800;28;20058;-88
2024/02/03 02:05:21;;;;;;;5.47;1.40;;;10.90;99.90;;;;;;6260073;28;20053;-91
2024/02/03 02:08:24;;;;;;;4.95;1.17;;;11.00;99.90;;;;;;6238595;28;20065;-91
2024/02/03 02:11:27;;;;;;;6.22;1.40;;;11.10;99.90;;;;;;6264545;28;20053;-95
2024/02/03 02:14:29;;;;;;;3.22;0.98;;;11.10;99.90;;;;;;6253573;28;20054;-93
2024/02/03 02:17:32;;;;;;;4.70;1.10;;;11.20;99.90;;;;;;6243250;28;20042;-94
2024/02/03 02:20:34;;;;;;;5.25;1.23;;;11.20;99.90;;;;;;6268491;28;20053;-91
2024/02/03 02:23:36;;;;;;;3.75;1.02;;;11.10;99.90;;;;;;6238129;28;20070;-93
2024/02/03 02:26:38;;;;;;;3.97;1.10;;;11.00;99.90;;;;;;6261924;28;20489;-90
2024/02/03 02:29:40;;;;;;;6.13;1.10;;;11.00;99.90;;;;;;6242425;28;20050;-93
2024/02/03 02:32:42;;;;;;;4.35;1.30;;;11.00;99.90;;;;;;6243363;28;20486;-93
2024/02/03 02:35:44;;;;;;;5.20;1.15;;;10.90;99.90;;;;;;6262488;28;20056;-91
2024/02/03 02:38:46;;;;;;;5.88;1.20;;;10.90;99.90;;;;;;6237736;28;20493;-94
2024/02/03 02:41:48;;;;;;;4.80;1.13;;;10.90;99.90;;;;;;6249521;28;20050;-91
2024/02/03 02:44:50;;;;;;;5.63;1.20;;;11.00;99.90;;;;;;6260954;28;20053;-93
2024/02/03 02:47:58;;;;;;;7.18;1.40;;;10.90;99.90;;;;;;6241186;28;20114;-94
2024/02/03 02:51:17;;;;;;;6.65;1.13;;;10.90;99.90;;;;;;6241074;28;20046;-95
2024/02/03 02:54:21;;;;;;;4.85;1.15;;;10.80;99.90;;;;;;6225926;28;20041;-93
2024/02/03 02:57:23;;;;;;;4.38;1.20;;;10.80;99.90;;;;;;6222801;28;20061;-94
2024/02/03 03:00:25;;;;;;;4.85;1.02;;;10.70;99.90;;;;;;6265055;28;20029;-92
2024/02/03 03:03:27;;;;;;;7.88;1.23;;;10.80;99.90;;;;;;6242271;28;20420;-95
2024/02/03 03:06:29;;;;;;;5.28;1.10;;;10.80;99.90;;;;;;6238889;28;20049;-93
2024/02/03 03:09:31;;;;;;;5.43;1.10;;;10.90;99.90;;;;;;6262502;28;20137;-93
2024/02/03 03:12:33;;;;;;;6.95;1.15;;;11.00;99.90;;;;;;6242500;28;20061;-94
2024/02/03 03:15:35;;;;;;;4.53;1.25;;;11.10;99.90;;;;;;6269604;28;20041;-92
2024/02/03 03:18:37;;;;;;;7.05;1.15;;;11.20;99.90;;;;;;6275825;28;20108;-94
2024/02/03 03:21:40;;;;;;;4.60;1.13;;;11.20;99.90;;;;;;6249853;28;20034;-91
2024/02/03 03:24:42;;;;;;;6.47;1.23;;;11.20;99.90;;;;;;6273360;28;20076;-91
2024/02/03 03:27:44;;;;;;;4.30;1.00;;;11.30;99.90;;;;;;6250452;28;20054;-83
2024/02/03 03:30:45;;;;;;;6.88;1.35;;;11.30;99.90;;;;;;6260501;28;20451;-91
2024/02/03 03:33:47;;;;;;;7.25;1.65;;;11.40;99.90;;;;;;6235057;28;20502;-92
2024/02/03 03:36:49;;;;;;;5.10;1.20;;;11.40;99.90;;;;;;6257453;28;20394;-92
2024/02/03 03:39:52;;;;;;;4.47;1.30;;;11.40;99.90;;;;;;6254783;28;20053;-92
2024/02/03 03:42:54;;;;;;;7.18;1.48;;;11.40;99.90;;;;;;6211703;28;20061;-90
2024/02/03 03:45:56;;;;;;;5.30;1.38;;;11.50;99.90;;;;;;6243613;28;20049;-92
2024/02/03 03:48:57;;;;;;;4.55;1.30;;;11.40;99.90;;;;;;6203334;28;20061;-92
2024/02/03 03:52:00;;;;;;;5.70;1.10;;;11.40;99.90;;;;;;6234390;28;20088;-91
2024/02/03 03:55:01;;;;;;;5.55;1.10;;;11.50;99.90;;;;;;6247951;28;20045;-90
2024/02/03 03:58:03;;;;;;;5.70;1.20;;;11.50;99.90;;;;;;6208447;28;20046;-90
2024/02/03 04:01:05;;;;;;;4.97;1.10;;;11.50;99.90;;;;;;6219190;28;20049;-92
2024/02/03 04:04:07;;;;;;;6.45;1.50;;;11.50;99.90;;;;;;6246617;28;20223;-93
2024/02/03 04:07:08;;;;;;;6.70;1.30;;;11.50;99.90;;;;;;6216435;28;20062;-91
2024/02/03 04:10:10;;;;;;;6.32;1.35;;;11.50;99.90;;;;;;6252521;28;20136;-90
2024/02/03 04:13:12;;;;;;;5.72;1.30;;;11.50;99.90;;;;;;6232521;28;20068;-91
2024/02/03 04:16:14;;;;;;;5.07;1.40;;;11.50;99.90;;;;;;6244209;28;20061;-89
2024/02/03 04:19:15;;;;;;;6.63;1.30;;;11.50;99.90;;;;;;6228342;28;20057;-91
2024/02/03 04:22:17;;;;;;;4.57;1.10;;;11.60;99.90;;;;;;6250939;28;20072;-89
2024/02/03 04:25:19;;;;;;;6.68;1.08;;;11.50;99.90;;;;;;6226190;28;20064;-92
2024/02/03 04:28:21;;;;;;;5.40;1.30;;;11.50;99.90;;;;;;6224022;28;20045;-90
2024/02/03 04:31:22;;;;;;;7.13;1.27;;;11.50;99.90;;;;;;6259804;28;20064;-93
2024/02/03 04:34:34;;;;;;;6.68;1.30;;;11.60;99.90;;;;;;6224570;28;20054;-94
2024/02/03 04:37:36;;;;;;;4.45;0.90;;;11.60;99.90;;;;;;6257039;28;20054;-93
2024/02/03 04:40:38;;;;;;;4.13;1.13;;;11.60;99.90;;;;;;6240369;28;20046;-92
2024/02/03 04:46:49;;;;;;;6.60;1.27;;;11.60;99.90;;;;;;6251847;28;20053;-88
2024/02/03 04:49:51;;;;;;;4.03;0.93;;;11.50;99.90;;;;;;6249594;28;20157;-89
2024/02/03 04:52:53;;;;;;;6.40;1.27;;;11.60;99.90;;;;;;6208690;28;20045;-89
2024/02/03 04:55:55;;;;;;;6.03;1.30;;;11.60;99.90;;;;;;6226970;28;20041;-88
2024/02/03 04:58:57;;;;;;;5.47;1.20;;;11.60;99.90;;;;;;6229271;28;20057;-89
2024/02/03 05:01:58;;;;;;;5.97;1.10;;;11.60;99.90;;;;;;6207097;28;20132;-89
2024/02/03 05:05:00;;;;;;;5.72;1.00;;;11.60;99.90;;;;;;6229098;28;20083;-88
2024/02/03 05:08:02;;;;;;;4.82;1.30;;;11.60;99.90;;;;;;6227754;28;20068;-88
2024/02/03 05:11:04;;;;;;;5.28;1.13;;;11.60;99.90;;;;;;6209972;28;20062;-88
2024/02/03 05:14:05;;;;;;;5.68;1.20;;;11.60;99.90;;;;;;6223533;28;20068;-90
2024/02/03 05:17:08;;;;;;;4.25;1.20;;;11.70;99.90;;;;;;6224042;28;20058;-89
2024/02/03 05:20:09;;;;;;;4.90;1.00;;;11.70;99.90;;;;;;6207939;28;20567;-88
2024/02/03 05:23:11;;;;;;;5.97;1.00;;;11.70;99.90;;;;;;6228315;28;20060;-89
2024/02/03 05:26:13;;;;;;;6.65;1.40;;;11.70;99.90;;;;;;6206183;28;20057;-88
2024/02/03 05:29:14;;;;;;;5.15;1.20;;;11.70;99.90;;;;;;6231005;28;20050;-88
2024/02/03 05:32:16;;;;;;;5.82;1.40;;;11.70;99.90;;;;;;6228718;28;20053;-88
2024/02/03 05:35:18;;;;;;;9.98;1.38;;;11.70;99.90;;;;;;6203971;28;20069;-89
2024/02/03 05:38:20;;;;;;;5.68;1.20;;;11.70;99.90;;;;;;6226864;28;20061;-88
2024/02/03 05:41:21;;;;;;;6.05;1.38;;;11.70;99.90;;;;;;6203906;28;20501;-87
2024/02/03 05:44:23;;;;;;;4.35;1.13;;;11.70;99.90;;;;;;6209487;28;20061;-88
2024/02/03 05:47:26;;;;;;;6.97;1.17;;;11.70;99.90;;;;;;6220862;28;20068;-88
2024/02/03 05:50:27;;;;;;;4.30;1.10;;;11.70;99.90;;;;;;6204534;28;20567;-87
2024/02/03 05:53:35;;;;;;;6.35;1.33;;;11.70;99.90;;;;;;6229050;28;20061;-88
2024/02/03 05:56:40;;;;;;;5.75;1.17;;;11.70;99.90;;;;;;6209301;28;20053;-88
2024/02/03 05:59:41;;;;;;;4.65;1.23;;;11.70;99.90;;;;;;6224803;28;20054;-87
2024/02/03 06:02:52;;;;;;;5.57;1.10;;;11.60;99.90;;;;;;6228387;28;20068;-87
2024/02/03 06:05:53;;;;;;;7.13;1.08;;;11.60;99.90;;;;;;6208284;28;20060;-90
2024/02/03 06:09:15;;;;;;;5.75;0.98;;;11.60;99.90;;;;;;6232209;28;20049;-89
2024/02/03 06:12:17;;;;;;;5.07;1.00;;;11.60;99.90;;;;;;6253779;28;20062;-90
2024/02/03 06:15:18;;;;;;;5.63;1.10;;;11.60;99.90;;;;;;6232794;28;20301;-91
2024/02/03 06:18:20;;;;;;;7.57;1.10;;;11.60;99.90;;;;;;6241374;28;20053;-89
2024/02/03 06:21:22;;;;;;;2.70;0.80;;;11.60;99.90;;;;;;6214632;28;20053;-89
2024/02/03 06:24:24;;;;;;;2.53;0.90;;;11.70;99.90;;;;;;6240776;28;20061;-88
2024/02/03 06:27:26;;;;;;;3.47;0.80;;;11.60;99.90;;;;;;6220101;28;20398;-87
2024/02/03 06:30:28;;;;;;;5.25;1.05;;;11.70;99.90;;;;;;6226883;28;20050;-88
2024/02/03 06:33:30;;;;;;;6.68;0.82;;;11.60;99.90;;;;;;6215794;28;20088;-88
2024/02/03 06:36:33;;;;;;;3.97;0.90;;;11.70;99.90;;;;;;6209993;28;20045;-90
2024/02/03 06:39:35;;;;;;;5.75;1.10;;;11.60;99.90;;;;;;6239958;28;20539;-90
2024/02/03 06:42:36;;;;;;;7.10;1.10;;;11.70;99.90;;;;;;6219039;28;20060;-89
2024/02/03 06:45:40;;;;;;;4.93;1.15;;;11.70;99.90;;;;;;6227033;28;20156;-90
2024/02/03 06:48:44;;;;;;;4.55;0.93;;;11.60;99.90;;;;;;6227154;28;20144;-90
2024/02/03 06:51:52;;;;;;;7.10;1.02;;;11.60;99.90;;;;;;6224805;28;20058;-88
2024/02/03 06:54:54;;;;;;;3.53;0.95;;;11.60;99.90;;;;;;6255069;28;20072;-89
2024/02/03 06:57:55;;;;;;;4.45;0.88;;;11.60;99.90;;;;;;6235870;28;20061;-89
2024/02/03 07:00:57;;;;;;;5.10;1.00;;;11.50;99.90;;;;;;6213677;28;20129;-88
2024/02/03 07:04:02;;;;;;;5.78;1.17;;;11.60;99.90;;;;;;6233995;28;20144;-89
2024/02/03 07:07:08;;;;;;;3.60;0.75;;;11.60;99.90;;;;;;6246514;28;20046;-90
2024/02/03 07:10:09;;;;;;;4.45;0.98;;;11.60;99.90;;;;;;6248862;28;20061;-88
2024/02/03 07:13:11;;;;;;;3.63;1.20;;;11.60;99.90;;;;;;6227832;28;20053;-88
2024/02/03 07:16:14;;;;;;;3.50;0.90;;;11.50;99.90;;;;;;6222042;28;20137;-89
2024/02/03 07:19:15;;;;;;;5.47;1.00;;;11.60;99.90;;;;;;6243633;28;20497;-89
2024/02/03 07:22:17;;;;;;;2.83;0.82;;;11.60;99.90;;;;;;6243646;28;20417;-88
2024/02/03 07:25:20;;;;;;;5.88;1.00;;;11.60;99.90;;;;;;6238939;28;20057;-86
2024/02/03 07:28:22;;;;;;;4.70;1.15;;;11.60;99.90;;;;;;6216200;28;20386;-88
2024/02/03 07:31:25;;;;;;;6.88;1.00;;;11.60;99.90;;;;;;6235571;28;20057;-90
2024/02/03 07:34:27;;;;;;;3.90;0.93;;;11.60;99.90;;;;;;6218710;28;20491;-89
2024/02/03 07:37:29;;;;;;;6.45;1.15;;;11.60;99.90;;;;;;6238167;28;20065;-89
2024/02/03 07:40:31;;;;;;;6.90;1.52;;;11.50;99.90;;;;;;6232138;28;20196;-90
2024/02/03 07:43:33;;;;;;;6.63;1.25;;;11.60;99.90;;;;;;6237030;28;20211;-88
2024/02/03 07:46:38;;;;;;;4.88;1.10;;;11.50;99.90;;;;;;6237875;28;20061;-88
2024/02/03 07:49:43;;;;;;;4.40;1.20;;;11.60;99.90;;;;;;6214361;28;20101;-88
2024/02/03 07:52:45;;;;;;;5.30;1.20;;;11.60;99.90;;;;;;6241853;28;20053;-89
2024/02/03 07:55:46;;;;;;;5.38;1.20;;;11.60;99.90;;;;;;6226229;28;20060;-89
2024/02/03 07:58:48;;;;;;;4.10;1.10;;;11.60;99.90;;;;;;6241056;28;20206;-89
2024/02/03 08:01:50;;;;;;;4.65;1.10;;;11.70;99.90;;;;;;6212332;28;20057;-91
2024/02/03 08:04:53;;;;;;;5.97;1.30;;;11.70;99.90;;;;;;6253599;28;20057;-90
2024/02/03 08:07:55;;;;;;;5.07;1.02;;;11.70;99.90;;;;;;6246020;28;20060;-92
2024/02/03 08:10:57;;;;;;;8.88;1.30;;;11.70;99.90;;;;;;6235557;28;20049;-90
2024/02/03 08:13:59;;;;;;;7.05;1.20;;;11.70;99.90;;;;;;6232762;28;20103;-90
2024/02/03 08:17:01;;;;;;;6.75;1.48;;;11.70;99.90;;;;;;6231957;28;20053;-88
2024/02/03 08:20:03;;;;;;;4.35;1.13;;;11.70;99.90;;;;;;6214733;28;20163;-87
2024/02/03 08:23:11;;;;;;;4.30;1.10;;;11.80;99.90;;;;;;6236910;28;20049;-88
2024/02/03 08:26:13;;;;;;;5.20;1.35;;;11.80;99.90;;;;;;6234453;28;20053;-92
2024/02/03 08:29:18;;;;;;;6.53;1.02;;;11.90;99.90;;;;;;6227344;28;20129;-89
2024/02/03 08:32:20;;;;;;;6.20;1.30;;;11.90;99.90;;;;;;6236324;28;20054;-91
2024/02/03 08:35:21;;;;;;;4.28;1.08;;;11.90;99.90;;;;;;6228471;28;20045;-90
2024/02/03 08:38:24;;;;;;;4.32;1.10;;;12.00;99.90;;;;;;6232576;28;20065;-91
2024/02/03 08:41:28;;;;;;;7.80;2.17;;;12.00;99.90;;;;;;6233883;28;20034;-91
2024/02/03 08:44:29;;;;;;;5.50;1.48;;;12.10;99.90;;;;;;6224027;28;20558;-91
2024/02/03 08:47:34;;;;;;;8.43;1.90;;;12.20;99.90;;;;;;6241383;28;20160;-91
2024/02/03 08:50:37;;;;;;;10.75;1.75;;;12.20;99.90;;;;;;6241570;28;20152;-88
2024/02/03 08:53:39;;;;;;;5.22;1.10;;;12.20;99.90;;;;;;6227750;28;20072;-87
2024/02/03 08:56:41;;;;;;;7.60;1.33;;;12.30;99.90;;;;;;6238099;28;20048;-91
2024/02/03 08:59:45;;;;;;;8.60;1.40;;;12.30;99.90;;;;;;6215932;28;20053;-91
2024/02/03 09:02:48;;;;;;;5.82;1.10;;;12.40;99.90;;;;;;6248942;28;20052;-89
2024/02/03 09:05:50;;;;;;;5.70;1.15;;;12.40;99.90;;;;;;6256507;28;20064;-91
2024/02/03 09:08:52;;;;;;;8.15;1.73;;;12.40;99.90;;;;;;6214746;28;20050;-88
2024/02/03 09:11:54;;;;;;;6.82;1.48;;;12.40;99.90;;;;;;6269177;28;20064;-88
2024/02/03 09:14:56;;;;;;;6.90;1.50;;;12.50;99.90;;;;;;6228108;28;20061;-90
2024/02/03 09:17:57;;;;;;;5.47;1.20;;;12.50;99.90;;;;;;6256170;28;20041;-90
2024/02/03 09:20:59;;;;;;;4.38;1.10;;;12.50;99.90;;;;;;6231848;28;20133;-89
2024/02/03 09:24:02;;;;;;;6.70;1.50;;;12.50;99.90;;;;;;6257488;28;20032;-90
2024/02/03 09:27:04;;;;;;;5.05;1.20;;;12.50;99.90;;;;;;6253836;28;20058;-88
2024/02/03 09:30:09;;;;;;;6.03;1.23;;;12.60;99.90;;;;;;6252460;28;20046;-89
2024/02/03 09:33:15;;;;;;;5.10;1.20;;;12.50;99.90;;;;;;6234011;28;20433;-87
2024/02/03 09:36:20;;;;;;;7.75;1.50;;;12.50;99.90;;;;;;6247728;28;20060;-89
2024/02/03 09:39:22;;;;;;;6.35;1.30;;;12.60;99.90;;;;;;6251570;28;20056;-88
2024/02/03 09:42:24;;;;;;;5.88;1.40;;;12.60;99.90;;;;;;6249784;28;20046;-88
2024/02/03 09:45:26;;;;;;;7.05;1.65;;;12.60;99.90;;;;;;6245980;28;20053;-86
2024/02/03 09:48:28;;;;;;;5.90;1.40;;;12.50;99.90;;;;;;6249793;28;20073;-89
2024/02/03 09:51:31;;;;;;;8.32;1.48;;;12.60;99.90;;;;;;6235426;28;20050;-90
2024/02/03 09:54:32;;;;;;;9.20;1.40;;;12.50;99.90;;;;;;6241525;28;20145;-90
2024/02/03 09:57:35;;;;;;;8.13;1.40;;;12.50;99.90;;;;;;6228402;28;20563;-89
2024/02/03 10:00:37;;;;;;;8.02;1.42;;;12.60;99.90;;;;;;6245027;28;20077;-89
2024/02/03 10:03:41;;;;;;;7.28;1.30;;;12.70;99.90;;;;;;6222326;28;20133;-88
2024/02/03 10:06:46;;;;;;;7.03;1.20;;;12.70;99.90;;;;;;6243342;28;20053;-82
2024/02/03 10:09:48;;;;;;;6.75;1.70;;;12.60;99.90;;;;;;6247608;28;20053;-86
2024/02/03 10:12:53;;;;;;;5.47;1.40;;;12.70;99.90;;;;;;6255568;28;20064;-85
2024/02/03 10:15:54;;;;;;;6.38;1.35;;;12.70;99.90;;;;;;6242342;28;20045;-82
2024/02/03 10:18:56;;;;;;;5.50;1.48;;;12.70;99.90;;;;;;6232606;28;20041;-86
2024/02/03 10:21:58;;;;;;;6.38;1.27;;;12.70;99.90;;;;;;6231426;28;20077;-86
2024/02/03 10:25:00;;;;;;;5.53;1.40;;;12.70;99.90;;;;;;6235866;28;20053;-86
2024/02/03 10:28:03;;;;;;;6.65;1.45;;;12.80;99.90;;;;;;6227341;28;20100;-84
2024/02/03 10:31:05;;;;;;;5.32;1.30;;;12.80;99.90;;;;;;6229017;28;20100;-84
2024/02/03 10:34:07;;;;;;;6.63;1.20;;;12.70;99.90;;;;;;6224987;28;20057;-85
2024/02/03 10:37:09;;;;;;;6.10;1.40;;;12.80;99.90;;;;;;6228049;28;20408;-84
2024/02/03 10:40:12;;;;;;;9.30;1.35;;;12.80;99.90;;;;;;6207398;28;20187;-83
2024/02/03 10:43:14;;;;;;;6.97;1.45;;;12.80;99.90;;;;;;6221718;28;20037;-88
2024/02/03 10:46:15;;;;;;;7.38;1.40;;;12.80;99.90;;;;;;6204818;28;20050;-87
2024/02/03 10:49:19;;;;;;;5.90;1.27;;;12.90;99.90;;;;;;6181016;28;20085;-87
2024/02/03 10:52:21;;;;;;;6.00;1.27;;;12.90;99.90;;;;;;6192226;28;20070;-89
2024/02/03 10:55:23;;;;;;;5.65;1.13;;;12.90;99.90;;;;;;6196870;28;20062;-88
2024/02/03 10:58:27;;;;;;;6.43;1.45;;;13.00;99.90;;;;;;6199485;28;20050;-85
2024/02/03 11:01:29;;;;;;;9.02;1.50;;;13.00;99.90;;;;;;6201619;28;20054;-87
2024/02/03 11:04:31;;;;;;;12.88;1.63;;;13.20;99.90;;;;;;6203570;28;20505;-90
2024/02/03 11:07:35;;;;;;;5.85;1.38;;;13.20;99.90;;;;;;6208469;28;20065;-89
2024/02/03 11:10:38;;;;;;;3.78;1.20;;;13.20;99.90;;;;;;6196281;28;20046;-89
2024/02/03 11:13:40;;;;;;;7.78;1.40;;;13.20;99.90;;;;;;6195680;28;20062;-90
2024/02/03 11:16:42;;;;;;;5.85;1.30;;;13.20;99.90;;;;;;6205608;28;20046;-87
2024/02/03 11:19:49;;;;;;;4.57;1.20;;;13.30;99.90;;;;;;6192509;28;20080;-89
2024/02/03 11:22:51;;;;;;;6.93;1.40;;;13.30;99.90;;;;;;6212072;28;20046;-88
2024/02/03 11:25:53;;;;;;;5.97;1.40;;;13.40;99.90;;;;;;6204382;28;20062;-86
2024/02/03 11:28:54;;;;;;;6.13;1.40;;;13.40;99.90;;;;;;6185904;28;20070;-84
2024/02/03 11:31:59;;;;;;;6.00;1.48;;;13.50;99.90;;;;;;6207612;28;20050;-92
2024/02/03 11:35:02;;;;;;;4.82;1.23;;;13.60;99.90;;;;;;6193867;28;20080;-87
2024/02/03 11:38:04;;;;;;;4.55;0.90;;;13.60;99.90;;;;;;6200750;28;20446;-83
2024/02/03 11:41:06;;;;;;;5.88;1.00;;;13.90;99.90;;;;;;6178136;28;20062;-89
2024/02/03 11:44:07;;;;;;;4.78;0.90;;;14.70;99.90;;;;;;6197735;28;20061;-92
2024/02/03 11:47:09;;;;;;;3.13;0.90;;;14.70;99.90;;;;;;6227957;28;20058;-84
2024/02/03 11:50:11;;;;;;;4.13;0.90;;;14.60;99.90;;;;;;6218913;28;20052;-83
2024/02/03 11:53:12;;;;;;;6.50;1.00;;;14.40;99.90;;;;;;6244574;28;20068;-87
2024/02/03 11:56:14;;;;;;;5.82;0.90;;;14.20;99.90;;;;;;6224284;28;20053;-89
2024/02/03 11:59:16;;;;;;;6.18;1.13;;;14.20;99.90;;;;;;6213770;28;20427;-86
2024/02/03 12:02:18;;;;;;;6.43;1.05;;;14.20;99.90;;;;;;6216384;28;20064;-83
2024/02/03 12:05:20;;;;;;;5.32;1.10;;;14.30;99.90;;;;;;6220538;28;20518;-83
2024/02/03 12:08:21;;;;;;;4.70;1.00;;;14.20;99.90;;;;;;6215683;28;20049;-85
2024/02/03 12:11:23;;;;;;;4.45;1.13;;;14.10;99.90;;;;;;6241780;28;20489;-78
2024/02/03 12:14:28;;;;;;;5.57;1.38;;;13.90;99.90;;;;;;6208033;28;20514;-81
2024/02/03 12:17:29;;;;;;;3.40;0.90;;;13.70;99.90;;;;;;6240902;28;20064;-81
2024/02/03 12:20:31;;;;;;;5.07;1.35;;;13.70;99.90;;;;;;6223666;28;20519;-81
2024/02/03 12:23:33;;;;;;;5.05;1.20;;;13.70;99.90;;;;;;6224587;28;20582;-81
2024/02/03 12:26:34;;;;;;;2.83;1.08;;;13.70;99.90;;;;;;6224468;28;20053;-81
2024/02/03 12:29:37;;;;;;;3.92;1.25;;;13.80;99.90;;;;;;6199155;28;20060;-80
2024/02/03 12:32:38;;;;;;;4.50;1.20;;;13.90;99.90;;;;;;6225409;28;20049;-81
2024/02/03 12:35:40;;;;;;;5.88;1.38;;;14.00;99.90;;;;;;6202320;28;20053;-81
2024/02/03 12:38:42;;;;;;;3.67;1.40;;;14.20;99.90;;;;;;6243846;28;20096;-81
2024/02/03 12:41:43;;;;;;;4.65;1.10;;;14.30;99.90;;;;;;6201859;28;20053;-81
2024/02/03 12:44:45;;;;;;;4.35;1.17;;;14.30;99.90;;;;;;6215116;28;20077;-81
2024/02/03 12:47:47;;;;;;;3.40;1.20;;;14.30;99.90;;;;;;6201413;28;20382;-81
2024/02/03 12:50:51;;;;;;;2.90;1.10;;;14.30;99.90;;;;;;6225196;28;20145;-81
2024/02/03 12:53:55;;;;;;;5.07;1.40;;;14.30;99.90;;;;;;6202528;28;20145;-84
2024/02/03 12:56:56;;;;;;;5.28;1.20;;;14.40;99.90;;;;;;6225267;28;20497;-80
2024/02/03 12:59:58;;;;;;;4.05;1.27;;;14.40;99.90;;;;;;6216746;28;20061;-80
2024/02/03 13:03:01;;;;;;;4.75;1.27;;;14.60;99.90;;;;;;6243283;28;20377;-77
2024/02/03 13:06:02;;;;;;;4.00;1.05;;;14.70;99.90;;;;;;6219335;28;20561;-80
2024/02/03 13:09:04;;;;;;;2.88;1.10;;;14.60;99.90;;;;;;6242402;28;20473;-79
2024/02/03 13:12:06;;;;;;;3.10;1.20;;;14.50;99.90;;;;;;6218089;28;20054;-79
2024/02/03 13:15:08;;;;;;;3.35;0.95;;;14.70;99.90;;;;;;6213607;28;20054;-81
2024/02/03 13:18:10;;;;;;;2.70;0.90;;;14.60;99.90;;;;;;6228437;28;20047;-80
2024/02/03 13:21:11;;;;;;;5.68;1.20;;;14.50;99.90;;;;;;6224410;28;20057;-81
2024/02/03 13:24:13;;;;;;;4.10;0.90;;;14.40;99.90;;;;;;6230055;28;20056;-81
2024/02/03 13:27:15;;;;;;;3.72;0.90;;;14.40;99.90;;;;;;6223944;28;20054;-82
2024/02/03 13:30:16;;;;;;;2.67;0.95;;;14.30;99.90;;;;;;6244517;28;20049;-85
2024/02/03 13:33:18;;;;;;;4.78;1.00;;;14.10;99.90;;;;;;6225937;28;20387;-86
2024/02/03 13:36:20;;;;;;;3.10;1.02;;;14.10;99.90;;;;;;6232272;28;20100;-86
2024/02/03 13:39:22;;;;;;;5.35;1.10;;;13.90;99.90;;;;;;6210591;28;20425;-86
2024/02/03 13:42:24;;;;;;;5.40;1.08;;;14.00;99.90;;;;;;6233173;28;20065;-87
2024/02/03 13:45:26;;;;;;;3.03;1.00;;;13.90;99.90;;;;;;6219704;28;20136;-86
2024/02/03 13:48:31;;;;;;;3.42;1.20;;;13.80;99.90;;;;;;6212213;28;20050;-86
2024/02/03 13:51:34;;;;;;;2.22;0.82;;;13.90;99.90;;;;;;6248873;28;20049;-85
2024/02/03 13:54:36;;;;;;;3.25;1.10;;;13.80;99.90;;;;;;6226449;28;20058;-85
2024/02/03 13:57:37;;;;;;;4.82;1.30;;;13.80;99.90;;;;;;6232480;28;20053;-87
2024/02/03 14:00:39;;;;;;;2.88;0.98;;;13.80;99.90;;;;;;6210323;28;20060;-85
2024/02/03 14:03:41;;;;;;;2.70;1.00;;;13.80;99.90;;;;;;6226204;28;20052;-89
2024/02/03 14:06:43;;;;;;;3.50;1.20;;;13.80;99.90;;;;;;6247962;28;20049;-85
2024/02/03 14:09:44;;;;;;;4.32;1.20;;;13.80;99.90;;;;;;6209893;28;20081;-91
2024/02/03 14:12:47;;;;;;;2.72;1.00;;;13.80;99.90;;;;;;6232310;28;20049;-91
2024/02/03 14:15:50;;;;;;;3.25;1.10;;;13.70;99.90;;;;;;6231040;28;20448;-84
2024/02/03 14:18:51;;;;;;;2.95;1.00;;;13.70;99.90;;;;;;6224634;28;20050;-84
2024/02/03 14:21:53;;;;;;;2.80;1.00;;;13.70;99.90;;;;;;6229269;28;20049;-86
2024/02/03 14:24:55;;;;;;;3.67;1.10;;;13.70;99.90;;;;;;6225317;28;20061;-87
2024/02/03 14:27:57;;;;;;;3.08;1.20;;;13.70;99.90;;;;;;6228072;28;20160;-86
2024/02/03 14:30:59;;;;;;;6.57;1.20;;;13.70;99.90;;;;;;6231729;28;20049;-88
2024/02/03 14:34:01;;;;;;;16.95;1.73;;;13.70;99.90;;;;;;6231809;28;20061;-89
2024/02/03 14:37:03;;;;;;;2.85;1.10;;;13.80;99.90;;;;;;6231566;28;20163;-87
2024/02/03 14:40:06;;;;;;;8.95;1.50;;;13.80;99.90;;;;;;6228936;28;20061;-83
2024/02/03 14:43:07;;;;;;;4.03;1.10;;;13.80;99.90;;;;;;6225495;28;20504;-84
2024/02/03 14:46:09;;;;;;;4.00;1.10;;;13.70;99.90;;;;;;6220602;28;20064;-86
2024/02/03 14:49:11;;;;;;;3.80;1.20;;;13.70;99.90;;;;;;6243181;28;20501;-85
2024/02/03 14:52:13;;;;;;;2.58;1.15;;;13.70;99.90;;;;;;6222438;28;20064;-84
2024/02/03 14:55:14;;;;;;;3.33;1.10;;;13.60;99.90;;;;;;6226193;28;20069;-88
2024/02/03 14:58:17;;;;;;;5.63;1.30;;;13.70;99.90;;;;;;6225214;28;20064;-87
2024/02/03 15:01:19;;;;;;;3.92;1.25;;;13.70;99.90;;;;;;6233070;28;20061;-83
2024/02/03 15:04:20;;;;;;;3.88;1.20;;;13.80;99.90;;;;;;6225408;28;20064;-89
2024/02/03 15:07:22;;;;;;;4.68;1.20;;;13.90;99.90;;;;;;6225907;28;20054;-85
2024/02/03 15:10:24;;;;;;;3.60;1.10;;;13.90;99.90;;;;;;6215418;28;20577;-87
2024/02/03 15:13:25;;;;;;;3.35;1.23;;;13.90;99.90;;;;;;6238808;28;20049;-86
2024/02/03 15:16:27;;;;;;;2.97;1.20;;;13.80;99.90;;;;;;6229517;28;20572;-85
2024/02/03 15:19:29;;;;;;;3.15;1.60;;;13.80;99.90;;;;;;6222079;28;20065;-84
2024/02/03 15:22:31;;;;;;;3.65;1.13;;;13.70;99.90;;;;;;6228672;28;20057;-85
2024/02/03 15:25:32;;;;;;;4.75;1.20;;;13.80;99.90;;;;;;6204351;28;20068;-83
2024/02/03 15:28:34;;;;;;;6.13;0.90;;;13.70;99.90;;;;;;6233269;28;20081;-84
2024/02/03 15:31:36;;;;;;;3.42;1.10;;;13.60;99.90;;;;;;6227326;28;20424;-84
2024/02/03 15:34:38;;;;;;;3.58;1.13;;;13.60;99.90;;;;;;6220610;28;20494;-84
2024/02/03 15:37:40;;;;;;;4.22;1.20;;;13.60;99.90;;;;;;6227955;28;20057;-85
2024/02/03 15:40:42;;;;;;;3.90;1.00;;;13.60;99.90;;;;;;6203387;28;20056;-84
2024/02/03 15:43:43;;;;;;;3.13;0.90;;;13.70;99.90;;;;;;6215338;28;20136;-83
2024/02/03 15:46:45;;;;;;;5.72;1.00;;;13.60;99.90;;;;;;6244547;28;20190;-82
2024/02/03 15:49:51;;;;;;;2.75;1.00;;;13.60;99.90;;;;;;6220313;28;20057;-84